Time;durP1;ratioP1;P1;durP2;ratioP2;P2;SDS_P1;SDS_P2;PMS_P1;PMS_P2;Temp;Humidity;BMP_temperature;BMP_pressure;BME280_temperature;BME280_humidity;BME280_pressure;Samples;Min_cycle;Max_cycle;Signal;HPM_P1;HPM_P2
2021/06/05 00:01:26;;;;;;;3.13;2.83;;;18.60;74.20;;;;;;10423411;28;20213;-28
2021/06/05 00:06:49;;;;;;;3.07;2.87;;;18.60;74.40;;;;;;10420747;28;20228;-27
2021/06/05 00:12:13;;;;;;;2.80;2.60;;;18.60;74.60;;;;;;10413791;28;20272;-25
2021/06/05 00:17:36;;;;;;;2.90;2.70;;;18.60;74.50;;;;;;10413939;28;20198;-26
2021/06/05 00:22:58;;;;;;;3.00;2.80;;;18.60;74.50;;;;;;10469442;28;20697;-26
2021/06/05 00:28:20;;;;;;;3.30;3.00;;;18.60;74.40;;;;;;10494220;28;20277;-26
2021/06/05 00:33:44;;;;;;;2.90;2.70;;;18.60;74.50;;;;;;10484144;28;20230;-27
2021/06/05 00:39:06;;;;;;;3.10;2.90;;;18.60;74.20;;;;;;10454624;28;20213;-25
2021/06/05 00:44:28;;;;;;;3.20;3.00;;;18.60;74.40;;;;;;10492924;28;20203;-31
2021/06/05 00:49:53;;;;;;;2.90;2.70;;;18.60;74.20;;;;;;10493528;28;20239;-21
2021/06/05 00:55:17;;;;;;;3.20;2.90;;;18.60;74.40;;;;;;10411405;28;20198;-25
2021/06/05 01:00:41;;;;;;;3.33;3.13;;;18.60;74.50;;;;;;10411573;28;20221;-26
2021/06/05 01:06:08;;;;;;;2.90;2.70;;;18.60;74.10;;;;;;10412338;28;20209;-26
2021/06/05 01:11:40;;;;;;;3.33;3.03;;;18.60;74.50;;;;;;10412013;28;20215;-26
2021/06/05 01:17:04;;;;;;;3.30;3.10;;;18.60;74.50;;;;;;10411636;28;20273;-25
2021/06/05 01:22:53;;;;;;;3.30;3.00;;;18.60;75.10;;;;;;10446085;28;20229;-26
2021/06/05 01:28:20;;;;;;;3.37;3.10;;;18.60;74.20;;;;;;10422640;28;20221;-28
2021/06/05 01:33:43;;;;;;;3.20;2.90;;;18.60;74.30;;;;;;10452259;28;20545;-26
2021/06/05 01:39:09;;;;;;;3.30;3.00;;;18.60;74.40;;;;;;10461574;28;20223;-25
2021/06/05 01:44:35;;;;;;;3.10;2.90;;;18.60;74.40;;;;;;10500959;28;20199;-25
2021/06/05 01:49:57;;;;;;;3.30;2.93;;;18.60;74.30;;;;;;10501524;28;20579;-25
2021/06/05 01:55:23;;;;;;;3.33;3.07;;;18.60;74.40;;;;;;10500024;28;20195;-26
2021/06/05 02:00:49;;;;;;;3.77;3.47;;;18.60;74.50;;;;;;10470115;28;20217;-28
2021/06/05 02:06:12;;;;;;;3.50;3.20;;;18.60;74.40;;;;;;10459711;28;20622;-24
2021/06/05 02:11:39;;;;;;;3.30;3.00;;;18.60;74.40;;;;;;10459918;28;20240;-26
2021/06/05 02:17:07;;;;;;;3.20;3.00;;;18.60;74.60;;;;;;10461274;28;20676;-26
2021/06/05 02:22:31;;;;;;;3.23;3.00;;;18.60;74.40;;;;;;10472899;28;20217;-27
2021/06/05 02:27:55;;;;;;;3.30;3.00;;;18.60;74.40;;;;;;10457765;28;20565;-25
2021/06/05 02:33:18;;;;;;;4.20;3.33;;;18.60;74.30;;;;;;10432472;28;20190;-24
2021/06/05 02:38:44;;;;;;;3.53;3.23;;;18.60;74.50;;;;;;10417427;28;20221;-27
2021/06/05 02:44:06;;;;;;;3.60;3.30;;;18.60;74.30;;;;;;10489005;28;20231;-24
2021/06/05 02:49:32;;;;;;;3.63;3.33;;;18.60;74.50;;;;;;10432293;28;20281;-27
2021/06/05 02:54:53;;;;;;;3.90;3.50;;;18.60;74.20;;;;;;10416944;28;20661;-22
2021/06/05 03:00:20;;;;;;;3.60;3.33;;;18.60;74.20;;;;;;10449338;28;20594;-26
2021/06/05 03:05:44;;;;;;;3.27;2.93;;;18.60;74.20;;;;;;10498198;28;20266;-25
2021/06/05 03:11:09;;;;;;;3.90;3.43;;;18.60;74.10;;;;;;10425408;28;20687;-26
2021/06/05 03:16:31;;;;;;;3.87;3.57;;;18.60;74.10;;;;;;10457066;28;20198;-24
2021/06/05 03:21:54;;;;;;;3.67;3.37;;;18.60;74.10;;;;;;10455746;28;20220;-26
2021/06/05 03:27:15;;;;;;;3.87;3.57;;;18.60;74.20;;;;;;10457112;28;20223;-25
2021/06/05 03:32:37;;;;;;;3.70;3.40;;;18.60;74.10;;;;;;10531594;22;20235;-23
2021/06/05 03:38:00;;;;;;;3.60;3.30;;;18.60;74.30;;;;;;10517354;28;20196;-22
2021/06/05 03:43:23;;;;;;;3.80;3.50;;;18.60;74.20;;;;;;10484198;28;20255;-22
2021/06/05 03:48:44;;;;;;;3.67;3.07;;;18.60;74.10;;;;;;10488327;28;20220;-22
2021/06/05 03:54:08;;;;;;;3.80;3.50;;;18.60;74.30;;;;;;10495717;28;20188;-22
2021/06/05 03:59:29;;;;;;;3.43;3.20;;;18.60;74.30;;;;;;10477534;28;20700;-22
2021/06/05 04:04:51;;;;;;;4.40;3.47;;;18.60;74.20;;;;;;10452463;28;20196;-25
2021/06/05 04:10:16;;;;;;;3.63;3.33;;;18.60;74.20;;;;;;10492729;28;20216;-22
2021/06/05 04:15:37;;;;;;;4.20;3.90;;;18.60;74.30;;;;;;10480572;28;20688;-22
2021/06/05 04:21:00;;;;;;;3.73;3.43;;;18.60;74.40;;;;;;10453128;28;20282;-22
2021/06/05 04:26:24;;;;;;;3.97;3.67;;;18.60;74.50;;;;;;10454747;28;20243;-22
2021/06/05 04:31:46;;;;;;;4.23;3.93;;;18.60;74.60;;;;;;10464183;28;20225;-23
2021/06/05 04:37:07;;;;;;;3.73;3.43;;;18.60;74.50;;;;;;10454955;28;20547;-22
2021/06/05 04:42:31;;;;;;;3.97;3.60;;;18.60;74.50;;;;;;10475594;28;20282;-22
2021/06/05 04:47:53;;;;;;;4.17;3.50;;;18.60;74.50;;;;;;10495038;28;20200;-22
2021/06/05 04:53:15;;;;;;;4.17;3.87;;;18.60;74.40;;;;;;10494192;28;20303;-22
2021/06/05 04:58:38;;;;;;;3.50;3.20;;;18.60;74.40;;;;;;10494346;28;20193;-22
2021/06/05 05:04:01;;;;;;;3.83;3.50;;;18.60;74.40;;;;;;10473893;28;20217;-21
2021/06/05 05:09:22;;;;;;;4.20;3.80;;;18.70;74.40;;;;;;10453215;28;20217;-20
2021/06/05 05:14:45;;;;;;;3.83;3.53;;;18.60;74.30;;;;;;10451140;28;20189;-20
2021/06/05 05:20:10;;;;;;;3.73;3.43;;;18.60;74.40;;;;;;10450608;28;20262;-21
2021/06/05 05:25:32;;;;;;;4.07;3.77;;;18.70;74.40;;;;;;10452114;28;20268;-21
2021/06/05 05:30:59;;;;;;;4.13;3.80;;;18.60;74.50;;;;;;10451252;28;20232;-22
2021/06/05 05:36:26;;;;;;;8.87;4.20;;;18.70;74.00;;;;;;10481497;28;20196;-22
2021/06/05 05:41:49;;;;;;;5.30;4.17;;;18.70;74.40;;;;;;10479202;28;20345;-24
2021/06/05 05:47:12;;;;;;;4.10;3.67;;;18.70;74.50;;;;;;10493559;28;20201;-22
2021/06/05 05:52:34;;;;;;;6.43;4.30;;;18.70;74.40;;;;;;10493168;28;20216;-22
2021/06/05 05:57:56;;;;;;;4.97;3.57;;;18.60;74.50;;;;;;10474414;28;20197;-22
2021/06/05 06:03:20;;;;;;;3.70;3.40;;;18.60;74.50;;;;;;10449874;28;20251;-23
2021/06/05 06:08:43;;;;;;;5.27;3.37;;;18.60;74.50;;;;;;10451311;28;20217;-22
2021/06/05 06:14:04;;;;;;;3.77;3.40;;;18.60;74.60;;;;;;10451391;28;20194;-22
2021/06/05 06:19:27;;;;;;;4.43;3.80;;;18.70;74.50;;;;;;10451387;28;20243;-23
2021/06/05 06:24:49;;;;;;;4.47;3.80;;;18.60;74.60;;;;;;10452069;28;20181;-19
2021/06/05 06:30:12;;;;;;;4.53;3.40;;;18.60;74.50;;;;;;10466483;28;20225;-23
2021/06/05 06:35:37;;;;;;;6.00;3.80;;;18.60;74.70;;;;;;10489979;28;20196;-22
2021/06/05 06:40:59;;;;;;;4.43;4.03;;;18.70;74.50;;;;;;10488958;28;20224;-22
2021/06/05 06:46:24;;;;;;;4.17;3.77;;;18.60;74.50;;;;;;10471024;28;20201;-25
2021/06/05 06:51:48;;;;;;;4.10;3.80;;;18.60;74.50;;;;;;10457757;28;20213;-23
2021/06/05 06:57:09;;;;;;;4.07;3.77;;;18.60;74.50;;;;;;10456394;28;20279;-22
2021/06/05 07:02:31;;;;;;;3.60;3.30;;;18.60;74.50;;;;;;10456873;28;20219;-22
2021/06/05 07:08:06;;;;;;;4.03;3.73;;;18.60;74.60;;;;;;10457981;28;20208;-25
2021/06/05 07:13:28;;;;;;;4.13;3.73;;;18.60;74.50;;;;;;10456532;28;20196;-22
2021/06/05 07:18:50;;;;;;;3.83;3.33;;;18.60;74.60;;;;;;10456968;28;20213;-22
2021/06/05 07:24:13;;;;;;;3.87;3.57;;;18.60;74.60;;;;;;10458841;28;20224;-22
2021/06/05 07:29:35;;;;;;;4.40;3.63;;;18.60;74.60;;;;;;10469241;28;20587;-22
2021/06/05 07:34:57;;;;;;;4.03;3.73;;;18.60;74.70;;;;;;10486074;28;20204;-22
2021/06/05 07:40:20;;;;;;;4.70;3.67;;;18.70;74.60;;;;;;10472129;28;20219;-25
2021/06/05 07:45:42;;;;;;;5.03;3.37;;;18.60;74.50;;;;;;10485093;28;20223;-22
2021/06/05 07:51:06;;;;;;;4.87;3.60;;;18.70;74.40;;;;;;10496135;28;20219;-25
2021/06/05 07:56:29;;;;;;;6.03;3.80;;;18.70;74.50;;;;;;10495854;28;20201;-22
2021/06/05 08:01:52;;;;;;;4.37;3.57;;;18.70;74.70;;;;;;10494314;28;20742;-24
2021/06/05 08:07:13;;;;;;;3.90;3.60;;;18.70;74.60;;;;;;10489075;28;20235;-20
2021/06/05 08:12:37;;;;;;;4.73;4.03;;;18.70;74.90;;;;;;10461340;28;20204;-22
2021/06/05 08:18:00;;;;;;;10.43;4.13;;;18.70;75.20;;;;;;10495624;28;20258;-22
2021/06/05 08:23:23;;;;;;;24.30;4.97;;;18.70;75.40;;;;;;10486165;28;20235;-21
2021/06/05 08:28:46;;;;;;;27.00;5.17;;;18.70;75.40;;;;;;10494470;28;20216;-23
2021/06/05 08:34:08;;;;;;;33.57;5.37;;;18.70;75.50;;;;;;10494292;28;20200;-21
2021/06/05 08:39:29;;;;;;;23.80;5.63;;;18.70;75.50;;;;;;10494200;28;20220;-23
2021/06/05 08:44:56;;;;;;;40.10;6.83;;;18.70;75.60;;;;;;10489743;28;20235;-22
2021/06/05 08:50:23;;;;;;;51.90;8.53;;;18.70;75.60;;;;;;10493926;28;20702;-22
2021/06/05 08:55:47;;;;;;;24.67;7.37;;;18.70;75.70;;;;;;10493847;28;20184;-23
2021/06/05 09:01:15;;;;;;;17.97;7.53;;;18.70;75.60;;;;;;10493802;28;20216;-22
2021/06/05 09:06:40;;;;;;;26.43;6.77;;;18.70;75.60;;;;;;10483201;28;20188;-24
2021/06/05 09:12:04;;;;;;;26.90;6.17;;;18.70;75.70;;;;;;10479063;28;20247;-22
2021/06/05 09:17:37;;;;;;;17.23;6.93;;;18.70;75.90;;;;;;10451434;28;20204;-23
2021/06/05 09:22:58;;;;;;;16.17;6.70;;;18.70;75.90;;;;;;10479808;28;20331;-23
2021/06/05 09:28:25;;;;;;;12.87;6.60;;;18.70;75.90;;;;;;10485810;28;20202;-22
2021/06/05 09:33:49;;;;;;;9.97;6.60;;;18.70;75.90;;;;;;10507369;22;20661;-23
2021/06/05 09:39:12;;;;;;;17.03;6.37;;;18.70;75.80;;;;;;10538597;28;20269;-25
2021/06/05 09:44:43;;;;;;;13.23;6.60;;;18.70;76.00;;;;;;10508552;28;20208;-23
2021/06/05 09:50:23;;;;;;;11.57;6.70;;;18.70;76.00;;;;;;10474819;28;21268;-22
2021/06/05 09:55:46;;;;;;;9.70;6.47;;;18.80;76.20;;;;;;10506515;28;20259;-22
2021/06/05 10:01:21;;;;;;;14.03;6.87;;;18.80;76.20;;;;;;10493445;28;20216;-23
2021/06/05 10:06:47;;;;;;;7.17;6.47;;;18.80;76.70;;;;;;10500811;28;20718;-25
2021/06/05 10:12:13;;;;;;;7.17;6.53;;;18.80;77.20;;;;;;10498413;28;20680;-22
2021/06/05 10:17:42;;;;;;;7.50;6.80;;;18.80;77.30;;;;;;10500216;28;20193;-22
2021/06/05 10:23:06;;;;;;;8.10;6.60;;;18.80;77.20;;;;;;10499072;28;20266;-23
2021/06/05 10:28:33;;;;;;;8.10;6.40;;;18.80;77.40;;;;;;10504713;28;20196;-23
2021/06/05 10:33:59;;;;;;;8.33;7.10;;;18.80;77.00;;;;;;10536551;28;20224;-23
2021/06/05 10:39:28;;;;;;;7.63;6.93;;;18.90;76.70;;;;;;10531410;28;20548;-23
2021/06/05 10:44:50;;;;;;;11.37;7.70;;;18.90;76.50;;;;;;10457493;28;20712;-23
2021/06/05 10:50:16;;;;;;;7.20;6.60;;;19.00;76.10;;;;;;10494363;28;20243;-24
2021/06/05 10:55:45;;;;;;;7.73;6.90;;;19.00;75.40;;;;;;10517666;28;20211;-22
2021/06/05 11:01:09;;;;;;;7.60;6.90;;;19.00;76.20;;;;;;10455760;28;20221;-22
2021/06/05 11:07:00;;;;;;;8.40;6.93;;;19.10;76.80;;;;;;10456771;28;20197;-22
2021/06/05 11:13:01;;;;;;;7.50;6.80;;;19.10;76.40;;;;;;10456383;28;20696;-22
2021/06/05 11:18:30;;;;;;;7.73;6.53;;;19.10;76.40;;;;;;10456200;28;20200;-22
2021/06/05 11:24:14;;;;;;;9.60;6.80;;;19.10;76.20;;;;;;10456204;28;20584;-23
2021/06/05 11:29:55;;;;;;;7.60;6.90;;;19.10;76.00;;;;;;10528086;28;20211;-23
2021/06/05 11:35:40;;;;;;;7.13;6.47;;;19.10;76.30;;;;;;10539038;28;20188;-21
2021/06/05 11:41:05;;;;;;;7.30;6.50;;;19.10;76.50;;;;;;10479435;28;20223;-23
2021/06/05 11:46:48;;;;;;;8.30;6.73;;;19.10;76.40;;;;;;10454924;28;20205;-21
2021/06/05 11:52:36;;;;;;;6.93;6.33;;;19.00;77.10;;;;;;10504536;28;20216;-25
2021/06/05 11:58:04;;;;;;;7.07;6.43;;;19.00;77.60;;;;;;10495775;28;20188;-23
2021/06/05 12:03:34;;;;;;;7.40;6.63;;;19.00;77.50;;;;;;10495716;28;20223;-22
2021/06/05 12:09:05;;;;;;;8.30;7.00;;;18.90;77.90;;;;;;10463857;28;20200;-22
2021/06/05 12:14:38;;;;;;;7.43;6.77;;;18.90;77.50;;;;;;10454071;28;20193;-23
2021/06/05 12:20:12;;;;;;;8.30;6.57;;;18.90;77.80;;;;;;10473421;28;20222;-22
2021/06/05 12:25:41;;;;;;;7.27;6.30;;;18.90;78.00;;;;;;10493831;28;20200;-24
2021/06/05 12:31:19;;;;;;;7.17;6.47;;;18.90;78.00;;;;;;10519009;28;20787;-22
2021/06/05 12:36:44;;;;;;;7.00;6.30;;;18.90;78.00;;;;;;10493770;28;20197;-23
2021/06/05 12:42:09;;;;;;;7.17;6.57;;;18.90;77.90;;;;;;10500582;28;20219;-22
2021/06/05 12:47:33;;;;;;;7.47;6.77;;;18.90;78.10;;;;;;10492581;28;20207;-22
2021/06/05 12:52:56;;;;;;;7.40;6.43;;;18.90;77.90;;;;;;10492431;28;20224;-22
2021/06/05 12:58:34;;;;;;;10.03;7.40;;;18.90;78.10;;;;;;10497834;28;20606;-23
2021/06/05 13:03:56;;;;;;;8.97;8.17;;;18.90;78.10;;;;;;10492774;28;20212;-23
2021/06/05 13:09:24;;;;;;;8.93;8.13;;;18.90;78.20;;;;;;10489517;28;20197;-22
2021/06/05 13:15:02;;;;;;;9.47;8.57;;;18.90;78.00;;;;;;10493611;28;20246;-22
2021/06/05 13:20:30;;;;;;;15.50;9.30;;;18.80;78.10;;;;;;10469195;28;20219;-24
2021/06/05 13:25:53;;;;;;;9.07;8.27;;;18.90;78.20;;;;;;10495906;28;20181;-23
2021/06/05 13:31:38;;;;;;;9.87;8.77;;;18.90;78.20;;;;;;10491425;28;20231;-22
2021/06/05 13:37:22;;;;;;;9.50;8.60;;;18.90;78.20;;;;;;10470446;28;20185;-25
2021/06/05 13:42:46;;;;;;;9.53;8.53;;;18.90;78.20;;;;;;10492987;28;20615;-24
2021/06/05 13:48:10;;;;;;;9.73;8.37;;;18.90;78.40;;;;;;10468670;28;20208;-23
2021/06/05 13:53:35;;;;;;;9.40;8.60;;;18.90;78.50;;;;;;10490504;28;20287;-26
2021/06/05 13:58:56;;;;;;;11.03;8.00;;;18.80;78.50;;;;;;10508276;28;20717;-22
2021/06/05 14:04:19;;;;;;;9.87;8.87;;;18.90;78.70;;;;;;10541231;28;20207;-22
2021/06/05 14:09:44;;;;;;;11.27;8.93;;;18.80;78.60;;;;;;10521510;28;20223;-22
2021/06/05 14:15:13;;;;;;;9.97;8.97;;;18.90;79.30;;;;;;10474452;28;20197;-23
2021/06/05 14:20:39;;;;;;;9.53;8.43;;;18.90;78.80;;;;;;10492615;28;20220;-23
2021/06/05 14:26:01;;;;;;;10.47;9.37;;;18.90;78.90;;;;;;10499132;28;20195;-23
2021/06/05 14:31:23;;;;;;;10.53;9.53;;;18.80;79.00;;;;;;10526938;28;20220;-21
2021/06/05 14:36:46;;;;;;;10.43;9.17;;;18.90;79.10;;;;;;10541387;28;20203;-22
2021/06/05 14:42:09;;;;;;;10.43;9.30;;;18.80;79.10;;;;;;10519606;28;20223;-22
2021/06/05 14:47:30;;;;;;;10.80;9.70;;;18.90;79.20;;;;;;10493383;28;20295;-23
2021/06/05 14:52:54;;;;;;;9.73;8.73;;;18.80;79.20;;;;;;10491781;28;20212;-23
2021/06/05 14:58:17;;;;;;;12.00;10.80;;;18.90;79.20;;;;;;10486323;28;20470;-23
2021/06/05 15:03:39;;;;;;;10.50;9.30;;;19.00;78.80;;;;;;10502220;28;20224;-23
2021/06/05 15:09:02;;;;;;;9.77;8.87;;;18.90;79.10;;;;;;10503424;28;20199;-24
2021/06/05 15:14:24;;;;;;;10.93;9.63;;;18.90;79.20;;;;;;10497790;28;20201;-23
2021/06/05 15:19:45;;;;;;;10.07;9.07;;;18.90;79.30;;;;;;10480260;28;20208;-24
2021/06/05 15:25:11;;;;;;;13.37;8.83;;;18.90;79.30;;;;;;10489411;28;20220;-24
2021/06/05 15:30:35;;;;;;;9.60;8.63;;;18.90;79.30;;;;;;10496814;28;20840;-22
2021/06/05 15:35:56;;;;;;;10.13;8.77;;;18.90;79.30;;;;;;10494356;28;20203;-23
2021/06/05 15:41:21;;;;;;;9.40;8.50;;;18.90;79.30;;;;;;10502664;28;20216;-22
2021/06/05 15:46:44;;;;;;;9.77;8.87;;;18.90;79.30;;;;;;10529763;22;20221;-24
2021/06/05 15:52:07;;;;;;;8.70;7.80;;;18.90;79.30;;;;;;10504380;28;20200;-27
2021/06/05 15:57:30;;;;;;;9.00;8.20;;;18.90;79.40;;;;;;10493435;28;20223;-26
2021/06/05 16:02:52;;;;;;;8.67;7.83;;;18.90;79.40;;;;;;10503674;28;20234;-23
2021/06/05 16:08:14;;;;;;;8.97;8.17;;;18.90;79.40;;;;;;10510401;28;20564;-29
2021/06/05 16:13:37;;;;;;;9.03;8.13;;;18.90;79.50;;;;;;10508884;28;20204;-22
2021/06/05 16:18:59;;;;;;;8.87;7.77;;;18.90;79.40;;;;;;10495852;28;20296;-18
2021/06/05 16:24:23;;;;;;;10.15;9.15;;;18.90;79.40;;;;;;10490015;28;20438;-22
2021/06/05 16:29:46;;;;;;;9.10;8.20;;;19.10;78.20;;;;;;10510979;28;20506;-23
2021/06/05 16:35:11;;;;;;;9.07;7.83;;;19.00;78.90;;;;;;10493373;28;20276;-26
2021/06/05 16:40:33;;;;;;;8.77;7.97;;;19.00;79.20;;;;;;10488853;28;20626;-23
2021/06/05 16:45:56;;;;;;;8.83;7.93;;;18.90;79.20;;;;;;10492804;28;20262;-19
2021/06/05 16:51:22;;;;;;;8.73;7.87;;;18.90;79.40;;;;;;10496955;28;20192;-22
2021/06/05 16:56:44;;;;;;;8.90;8.10;;;18.90;79.30;;;;;;10518314;28;20212;-26
2021/06/05 17:02:06;;;;;;;9.87;7.73;;;18.90;79.40;;;;;;10535128;28;20276;-30
2021/06/05 17:07:28;;;;;;;8.50;7.70;;;18.90;79.40;;;;;;10527780;28;20274;-25
2021/06/05 17:12:50;;;;;;;11.30;8.13;;;18.90;78.80;;;;;;10493160;28;20203;-31
2021/06/05 17:18:15;;;;;;;19.88;8.32;;;19.00;78.70;;;;;;10492550;28;20422;-20
2021/06/05 17:23:40;;;;;;;22.53;9.07;;;19.20;78.00;;;;;;10530934;28;20591;-26
2021/06/05 17:29:03;;;;;;;19.60;9.73;;;19.10;78.60;;;;;;10512646;28;20227;-23
2021/06/05 17:34:26;;;;;;;27.93;8.80;;;19.10;79.20;;;;;;10498183;28;20701;-24
2021/06/05 17:39:48;;;;;;;28.53;9.60;;;19.10;79.30;;;;;;10512095;28;20211;-23
2021/06/05 17:45:13;;;;;;;20.37;9.17;;;19.00;79.20;;;;;;10521357;28;20644;-28
2021/06/05 17:50:36;;;;;;;26.40;8.60;;;19.00;79.30;;;;;;10521200;28;20196;-27
2021/06/05 17:55:58;;;;;;;16.43;8.53;;;19.00;79.40;;;;;;10486306;28;20223;-24
2021/06/05 18:01:20;;;;;;;12.00;8.57;;;19.00;79.50;;;;;;10492237;28;20200;-24
2021/06/05 18:06:46;;;;;;;16.23;8.67;;;19.10;79.50;;;;;;10487281;28;20216;-24
2021/06/05 18:12:10;;;;;;;13.17;9.07;;;19.00;79.80;;;;;;10513922;28;20204;-23
2021/06/05 18:17:32;;;;;;;11.37;8.47;;;19.00;79.90;;;;;;10526442;28;20222;-24
2021/06/05 18:22:55;;;;;;;8.70;7.80;;;19.00;80.00;;;;;;10505226;28;20212;-22
2021/06/05 18:28:17;;;;;;;9.17;8.27;;;19.00;80.00;;;;;;10501056;28;20325;-22
2021/06/05 18:33:42;;;;;;;9.20;8.20;;;19.00;80.00;;;;;;10534715;28;20195;-24
2021/06/05 18:39:10;;;;;;;13.90;8.23;;;19.00;80.20;;;;;;10535543;28;20219;-22
2021/06/05 18:44:31;;;;;;;10.37;8.03;;;19.00;80.80;;;;;;10502949;28;20599;-24
2021/06/05 18:49:56;;;;;;;9.90;7.30;;;19.00;80.20;;;;;;10458361;28;20258;-25
2021/06/05 18:55:22;;;;;;;10.67;7.83;;;18.90;80.20;;;;;;10493249;28;20226;-23
2021/06/05 19:00:44;;;;;;;9.00;7.97;;;18.90;80.20;;;;;;10492754;28;20201;-23
2021/06/05 19:06:07;;;;;;;8.70;7.13;;;18.90;80.20;;;;;;10492037;28;20220;-24
2021/06/05 19:11:30;;;;;;;8.37;7.27;;;18.90;80.20;;;;;;10510503;28;20195;-20
2021/06/05 19:16:54;;;;;;;7.83;7.13;;;18.90;80.20;;;;;;10533818;28;20212;-28
2021/06/05 19:22:17;;;;;;;9.07;8.03;;;18.90;80.20;;;;;;10532293;28;20794;-20
2021/06/05 19:27:40;;;;;;;9.13;7.63;;;18.90;80.20;;;;;;10530676;28;20223;-23
2021/06/05 19:33:05;;;;;;;9.23;7.03;;;18.90;80.20;;;;;;10504609;28;20191;-28
2021/06/05 19:38:27;;;;;;;8.27;7.47;;;18.90;80.20;;;;;;10533353;28;20220;-32
2021/06/05 19:43:54;;;;;;;8.43;7.27;;;18.90;80.00;;;;;;10498733;28;20718;-25
2021/06/05 19:49:16;;;;;;;10.03;7.17;;;18.90;79.90;;;;;;10490224;28;20254;-27
2021/06/05 19:54:38;;;;;;;9.00;7.47;;;18.90;79.80;;;;;;10494737;28;20189;-26
2021/06/05 20:00:01;;;;;;;7.60;6.87;;;18.90;79.80;;;;;;10496551;28;20213;-29
2021/06/05 20:05:24;;;;;;;8.60;7.70;;;18.90;79.90;;;;;;10520404;28;20429;-26
2021/06/05 20:10:46;;;;;;;8.43;7.63;;;19.00;79.60;;;;;;10493081;28;20957;-24
2021/06/05 20:16:15;;;;;;;8.13;7.40;;;19.00;79.90;;;;;;10492553;28;20212;-23
2021/06/05 20:21:41;;;;;;;8.30;7.50;;;18.90;80.50;;;;;;10488312;28;20209;-22
2021/06/05 20:27:06;;;;;;;7.87;7.13;;;18.90;80.50;;;;;;10490637;28;20204;-24
2021/06/05 20:32:31;;;;;;;8.30;7.50;;;18.90;80.50;;;;;;10492486;28;20662;-26
2021/06/05 20:37:53;;;;;;;8.80;7.90;;;18.90;80.50;;;;;;10489899;28;20248;-25
2021/06/05 20:43:15;;;;;;;8.33;7.53;;;18.90;81.10;;;;;;10484315;28;20248;-28
2021/06/05 20:48:40;;;;;;;8.13;7.43;;;18.90;80.60;;;;;;10482122;28;20808;-23
2021/06/05 20:54:02;;;;;;;7.37;6.73;;;18.90;80.50;;;;;;10465899;28;20208;-22
2021/06/05 20:59:24;;;;;;;7.80;7.00;;;18.90;80.50;;;;;;10453237;28;20596;-26
2021/06/05 21:04:48;;;;;;;7.63;6.93;;;18.90;80.50;;;;;;10460944;28;20223;-24
2021/06/05 21:10:11;;;;;;;8.57;7.43;;;18.90;80.60;;;;;;10493605;28;20682;-26
2021/06/05 21:15:33;;;;;;;8.10;7.30;;;18.90;80.50;;;;;;10492178;28;20272;-31
2021/06/05 21:20:56;;;;;;;8.20;7.50;;;18.90;80.50;;;;;;10499983;28;20200;-28
2021/06/05 21:26:18;;;;;;;7.93;7.17;;;18.90;80.60;;;;;;10503172;28;20220;-21
2021/06/05 21:31:42;;;;;;;8.57;7.77;;;18.90;80.60;;;;;;10503684;28;20191;-30
2021/06/05 21:37:05;;;;;;;7.73;7.13;;;18.80;80.60;;;;;;10505172;28;20223;-27
2021/06/05 21:42:27;;;;;;;7.83;7.20;;;18.90;80.60;;;;;;10534458;28;20754;-23
2021/06/05 21:47:49;;;;;;;8.13;7.33;;;18.90;80.60;;;;;;10556464;22;20716;-24
2021/06/05 21:53:13;;;;;;;7.67;7.07;;;18.90;80.60;;;;;;10497878;28;20184;-22
2021/06/05 21:58:35;;;;;;;7.77;7.07;;;18.90;80.60;;;;;;10523967;28;20222;-24
2021/06/05 22:03:58;;;;;;;8.73;7.93;;;18.90;80.70;;;;;;10534919;28;20222;-23
2021/06/05 22:09:24;;;;;;;8.13;7.43;;;18.90;80.60;;;;;;10541664;28;20640;-24
2021/06/05 22:14:48;;;;;;;7.57;6.90;;;18.90;80.60;;;;;;10533750;28;20190;-22
2021/06/05 22:20:14;;;;;;;8.03;7.33;;;18.90;80.70;;;;;;10541866;28;20299;-23
2021/06/05 22:25:37;;;;;;;8.20;7.40;;;18.90;80.60;;;;;;10540628;28;20218;-23
2021/06/05 22:31:03;;;;;;;7.60;7.00;;;18.90;80.70;;;;;;10513606;28;20575;-23
2021/06/05 22:36:25;;;;;;;8.13;7.33;;;18.90;80.70;;;;;;10504515;28;20215;-24
2021/06/05 22:41:48;;;;;;;7.70;7.10;;;18.90;80.70;;;;;;10533402;28;20674;-24
2021/06/05 22:47:09;;;;;;;7.50;6.90;;;18.90;80.70;;;;;;10539312;28;20227;-23
2021/06/05 22:52:32;;;;;;;7.67;7.07;;;18.90;80.70;;;;;;10541144;28;20658;-24
2021/06/05 22:57:55;;;;;;;7.50;6.77;;;18.90;80.70;;;;;;10539611;28;20720;-24
2021/06/05 23:03:19;;;;;;;7.87;7.13;;;18.90;80.60;;;;;;10539608;28;20218;-24
2021/06/05 23:08:42;;;;;;;7.47;6.77;;;18.90;80.70;;;;;;10540239;28;20866;-24
2021/06/05 23:14:06;;;;;;;7.57;6.97;;;18.90;80.70;;;;;;10540464;28;20679;-24
2021/06/05 23:19:28;;;;;;;7.50;6.90;;;18.80;80.60;;;;;;10540450;28;20211;-23
2021/06/05 23:24:49;;;;;;;6.57;5.97;;;18.90;80.70;;;;;;10538054;28;20264;-24
2021/06/05 23:30:14;;;;;;;7.47;6.77;;;18.90;80.70;;;;;;10539723;28;20717;-23
2021/06/05 23:35:39;;;;;;;7.37;6.60;;;18.90;80.60;;;;;;10538536;28;20552;-24
2021/06/05 23:41:02;;;;;;;6.60;6.10;;;18.90;80.60;;;;;;10538781;28;20203;-24
2021/06/05 23:46:26;;;;;;;7.53;6.90;;;18.90;81.20;;;;;;10538490;28;20227;-23
2021/06/05 23:51:48;;;;;;;7.63;6.97;;;18.90;80.60;;;;;;10538957;28;20203;-23
2021/06/05 23:57:10;;;;;;;7.30;6.70;;;18.90;80.60;;;;;;10538683;28;20705;-24
